To NAV CANADA Home Page Login to a new session Search on AWWS site Disclaimer Vers la page française équivalente Tips FAQ What's new on the site To the Forecasts and Observations / NOTAM section To "File a Flight Plan" website Publications and other links Update of the User's profile FIC Telephone Numbers My Weather Data Folder Route Weather Data Regional Weather Data Local Weather Data To the Forecasts and Observations / NOTAM section
Request Generated 11/13/2018 at 18:13:54 UTC . Weather information available at that time is displayed.

METAR/TAF

STEWART/BC    

METAR CZST 131800Z 34002KT 12SM -RA SCT035 BKN045 BKN055 OVC090 02/02 A2979 RMK SC3SC2SC1AS2 SLP089=
METAR CZST 131700Z VRB02KT 12SM -RA SCT035 BKN045 OVC055 02/01 A2981 RMK SC3SC3SC2 SLP096=
SPECI CZST 131634Z VRB02KT 12SM -RA OVC040 02/01 A2981 RMK SC8 SLP097=
METAR CZST 131600Z VRB02KT 15SM SCT045 OVC065 01/01 A2980 RMK SC4SC4 VIRGA ALQDS SLP092=

CZST - No TAF is issued for this station

Your time UTC time
Weather data provided by Environment Canada and NAV CANADA